sensor_id;sensor_type;location;lat;lon;timestamp;pressure;altitude;pressure_sealevel;temperature;humidity
77149;BME280;66122;47.130;16.844;2023-06-26T00:00:11;99748.88;;;16.51;96.88
77149;BME280;66122;47.130;16.844;2023-06-26T00:10:13;99750.66;;;16.06;98.19
77149;BME280;66122;47.130;16.844;2023-06-26T00:20:16;99759.91;;;16.13;97.45
77149;BME280;66122;47.130;16.844;2023-06-26T00:30:21;99744.41;;;15.59;100.00
77149;BME280;66122;47.130;16.844;2023-06-26T00:40:24;99751.28;;;15.86;98.86
77149;BME280;66122;47.130;16.844;2023-06-26T00:50:27;99746.78;;;15.75;99.53
77149;BME280;66122;47.130;16.844;2023-06-26T01:00:29;99742.72;;;15.22;100.00
77149;BME280;66122;47.130;16.844;2023-06-26T01:10:32;99728.06;;;15.51;100.00
77149;BME280;66122;47.130;16.844;2023-06-26T01:20:37;99721.00;;;15.63;100.00
77149;BME280;66122;47.130;16.844;2023-06-26T01:30:44;99733.84;;;15.45;100.00
77149;BME280;66122;47.130;16.844;2023-06-26T01:40:48;99714.81;;;15.50;99.95
77149;BME280;66122;47.130;16.844;2023-06-26T01:50:52;99717.38;;;15.51;99.29
77149;BME280;66122;47.130;16.844;2023-06-26T02:00:55;99713.69;;;15.17;100.00
77149;BME280;66122;47.130;16.844;2023-06-26T02:10:59;99712.16;;;15.26;98.82
77149;BME280;66122;47.130;16.844;2023-06-26T02:21:03;99710.03;;;14.95;100.00
77149;BME280;66122;47.130;16.844;2023-06-26T02:31:06;99720.75;;;14.82;100.00
77149;BME280;66122;47.130;16.844;2023-06-26T02:41:09;99719.00;;;14.94;98.97
77149;BME280;66122;47.130;16.844;2023-06-26T02:51:11;99721.66;;;14.44;100.00
77149;BME280;66122;47.130;16.844;2023-06-26T03:01:14;99695.91;;;14.69;100.00
77149;BME280;66122;47.130;16.844;2023-06-26T03:11:19;99718.03;;;14.95;99.62
77149;BME280;66122;47.130;16.844;2023-06-26T03:21:22;99721.53;;;14.46;100.00
77149;BME280;66122;47.130;16.844;2023-06-26T03:31:25;99721.06;;;14.77;100.00
77149;BME280;66122;47.130;16.844;2023-06-26T03:41:28;99727.72;;;14.59;100.00
77149;BME280;66122;47.130;16.844;2023-06-26T03:51:30;99730.06;;;14.26;100.00
77149;BME280;66122;47.130;16.844;2023-06-26T04:01:33;99746.69;;;15.16;100.00
77149;BME280;66122;47.130;16.844;2023-06-26T04:11:37;99737.13;;;15.61;100.00
77149;BME280;66122;47.130;16.844;2023-06-26T04:21:39;99749.53;;;15.26;100.00
77149;BME280;66122;47.130;16.844;2023-06-26T04:31:42;99728.81;;;16.46;97.45
77149;BME280;66122;47.130;16.844;2023-06-26T04:41:49;99740.97;;;17.16;94.51
77149;BME280;66122;47.130;16.844;2023-06-26T04:51:51;99738.75;;;17.33;93.01
77149;BME280;66122;47.130;16.844;2023-06-26T05:01:55;99745.44;;;18.44;88.45
77149;BME280;66122;47.130;16.844;2023-06-26T05:11:57;99731.06;;;18.54;81.98
77149;BME280;66122;47.130;16.844;2023-06-26T05:22:01;99737.13;;;19.07;79.78
77149;BME280;66122;47.130;16.844;2023-06-26T05:32:06;99747.84;;;20.05;76.15
77149;BME280;66122;47.130;16.844;2023-06-26T05:42:10;99754.19;;;19.46;79.61
77149;BME280;66122;47.130;16.844;2023-06-26T05:52:13;99762.41;;;21.15;73.80
77149;BME280;66122;47.130;16.844;2023-06-26T06:02:15;99747.50;;;21.83;68.89
77149;BME280;66122;47.130;16.844;2023-06-26T06:12:18;99747.66;;;21.64;69.30
77149;BME280;66122;47.130;16.844;2023-06-26T06:22:20;99745.81;;;22.95;66.03
77149;BME280;66122;47.130;16.844;2023-06-26T06:32:23;99732.03;;;24.13;60.98
77149;BME280;66122;47.130;16.844;2023-06-26T06:42:26;99739.19;;;23.98;59.52
77149;BME280;66122;47.130;16.844;2023-06-26T06:52:28;99723.78;;;23.99;58.60
77149;BME280;66122;47.130;16.844;2023-06-26T07:02:31;99731.19;;;24.45;55.74
77149;BME280;66122;47.130;16.844;2023-06-26T07:12:34;99724.94;;;25.39;51.33
77149;BME280;66122;47.130;16.844;2023-06-26T07:22:37;99735.03;;;25.53;50.48
77149;BME280;66122;47.130;16.844;2023-06-26T07:32:39;99734.63;;;26.10;50.37
77149;BME280;66122;47.130;16.844;2023-06-26T07:42:46;99730.84;;;25.74;48.12
77149;BME280;66122;47.130;16.844;2023-06-26T07:52:48;99730.56;;;26.66;48.60
77149;BME280;66122;47.130;16.844;2023-06-26T08:02:51;99726.50;;;26.48;47.42
77149;BME280;66122;47.130;16.844;2023-06-26T08:12:54;99730.88;;;27.15;46.44
77149;BME280;66122;47.130;16.844;2023-06-26T08:22:57;99728.41;;;27.71;43.86
77149;BME280;66122;47.130;16.844;2023-06-26T08:33:00;99734.69;;;27.93;43.07
77149;BME280;66122;47.130;16.844;2023-06-26T08:43:04;99721.88;;;28.64;40.61
77149;BME280;66122;47.130;16.844;2023-06-26T08:53:23;99722.81;;;29.12;41.26
77149;BME280;66122;47.130;16.844;2023-06-26T09:03:31;99703.69;;;29.66;38.75
77149;BME280;66122;47.130;16.844;2023-06-26T09:13:35;99699.25;;;29.45;40.23
77149;BME280;66122;47.130;16.844;2023-06-26T09:23:39;99696.34;;;29.60;40.08
77149;BME280;66122;47.130;16.844;2023-06-26T09:33:43;99705.16;;;28.73;40.92
77149;BME280;66122;47.130;16.844;2023-06-26T09:43:51;99680.81;;;30.26;38.72
77149;BME280;66122;47.130;16.844;2023-06-26T09:53:53;99670.72;;;30.60;39.68
77149;BME280;66122;47.130;16.844;2023-06-26T10:03:57;99672.63;;;30.33;39.28
77149;BME280;66122;47.130;16.844;2023-06-26T10:14:03;99664.97;;;30.81;36.97
77149;BME280;66122;47.130;16.844;2023-06-26T10:24:20;99658.44;;;30.89;36.76
77149;BME280;66122;47.130;16.844;2023-06-26T10:34:24;99637.09;;;29.74;38.59
77149;BME280;66122;47.130;16.844;2023-06-26T10:44:27;99658.47;;;30.69;36.43
77149;BME280;66122;47.130;16.844;2023-06-26T10:54:31;99643.13;;;30.68;36.58
77149;BME280;66122;47.130;16.844;2023-06-26T11:14:41;99628.50;;;31.70;36.14
77149;BME280;66122;47.130;16.844;2023-06-26T11:24:43;99616.44;;;31.46;33.08
77149;BME280;66122;47.130;16.844;2023-06-26T11:34:47;99615.94;;;32.12;33.69
77149;BME280;66122;47.130;16.844;2023-06-26T11:44:50;99617.28;;;32.03;32.17
77149;BME280;66122;47.130;16.844;2023-06-26T11:55:00;99590.81;;;32.15;34.60
77149;BME280;66122;47.130;16.844;2023-06-26T12:05:30;99582.91;;;32.00;32.77
77149;BME280;66122;47.130;16.844;2023-06-26T12:15:33;99615.69;;;32.38;33.51
77149;BME280;66122;47.130;16.844;2023-06-26T12:25:36;99587.50;;;32.68;33.67
77149;BME280;66122;47.130;16.844;2023-06-26T12:35:38;99575.50;;;32.62;32.26
77149;BME280;66122;47.130;16.844;2023-06-26T12:45:44;99574.22;;;32.46;34.81
77149;BME280;66122;47.130;16.844;2023-06-26T12:55:47;99586.81;;;32.11;34.46
77149;BME280;66122;47.130;16.844;2023-06-26T13:05:50;99596.50;;;33.23;32.00
77149;BME280;66122;47.130;16.844;2023-06-26T13:15:52;99573.75;;;31.57;34.19
77149;BME280;66122;47.130;16.844;2023-06-26T13:25:55;99569.84;;;32.57;31.77
77149;BME280;66122;47.130;16.844;2023-06-26T13:35:57;99565.59;;;33.27;31.38
77149;BME280;66122;47.130;16.844;2023-06-26T13:46:00;99552.66;;;32.07;34.52
77149;BME280;66122;47.130;16.844;2023-06-26T13:56:03;99547.22;;;32.43;33.55
77149;BME280;66122;47.130;16.844;2023-06-26T14:06:06;99542.38;;;33.23;32.18
77149;BME280;66122;47.130;16.844;2023-06-26T14:16:09;99542.44;;;32.14;35.42
77149;BME280;66122;47.130;16.844;2023-06-26T14:26:12;99527.13;;;33.27;30.66
77149;BME280;66122;47.130;16.844;2023-06-26T14:36:14;99520.22;;;33.07;32.21
77149;BME280;66122;47.130;16.844;2023-06-26T14:46:17;99523.81;;;32.77;32.65
77149;BME280;66122;47.130;16.844;2023-06-26T14:56:20;99523.63;;;33.20;31.92
77149;BME280;66122;47.130;16.844;2023-06-26T15:06:22;99513.91;;;31.60;33.91
77149;BME280;66122;47.130;16.844;2023-06-26T15:16:25;99512.72;;;32.66;32.67
77149;BME280;66122;47.130;16.844;2023-06-26T15:26:28;99502.28;;;31.58;34.16
77149;BME280;66122;47.130;16.844;2023-06-26T15:36:30;99489.97;;;31.42;35.04
77149;BME280;66122;47.130;16.844;2023-06-26T15:46:33;99473.41;;;31.56;34.59
77149;BME280;66122;47.130;16.844;2023-06-26T15:56:35;99483.38;;;30.56;35.43
77149;BME280;66122;47.130;16.844;2023-06-26T16:06:38;99477.94;;;30.87;36.42
77149;BME280;66122;47.130;16.844;2023-06-26T16:16:40;99475.38;;;30.61;36.60
77149;BME280;66122;47.130;16.844;2023-06-26T16:26:43;99469.16;;;29.43;37.09
77149;BME280;66122;47.130;16.844;2023-06-26T16:36:45;99466.13;;;30.55;35.14
77149;BME280;66122;47.130;16.844;2023-06-26T16:46:55;99465.34;;;29.05;39.25
77149;BME280;66122;47.130;16.844;2023-06-26T16:56:59;99471.31;;;28.54;40.77
77149;BME280;66122;47.130;16.844;2023-06-26T17:07:02;99473.75;;;28.29;42.61
77149;BME280;66122;47.130;16.844;2023-06-26T17:17:05;99466.00;;;27.98;44.30
77149;BME280;66122;47.130;16.844;2023-06-26T17:27:12;99455.56;;;27.40;45.46
77149;BME280;66122;47.130;16.844;2023-06-26T17:37:17;99457.88;;;27.15;45.81
77149;BME280;66122;47.130;16.844;2023-06-26T17:47:20;99471.28;;;26.95;46.14
77149;BME280;66122;47.130;16.844;2023-06-26T17:57:22;99467.97;;;26.78;47.76
77149;BME280;66122;47.130;16.844;2023-06-26T18:07:25;99463.66;;;26.48;49.88
77149;BME280;66122;47.130;16.844;2023-06-26T18:17:28;99479.75;;;26.14;53.70
77149;BME280;66122;47.130;16.844;2023-06-26T18:27:34;99483.78;;;25.51;56.05
77149;BME280;66122;47.130;16.844;2023-06-26T18:37:37;99489.63;;;24.79;62.87
77149;BME280;66122;47.130;16.844;2023-06-26T18:47:40;99494.72;;;24.21;65.37
77149;BME280;66122;47.130;16.844;2023-06-26T18:57:43;99479.88;;;24.00;67.33
77149;BME280;66122;47.130;16.844;2023-06-26T19:07:46;99486.97;;;23.30;69.13
77149;BME280;66122;47.130;16.844;2023-06-26T19:17:49;99505.22;;;22.95;69.44
77149;BME280;66122;47.130;16.844;2023-06-26T19:27:51;99512.66;;;22.35;74.92
77149;BME280;66122;47.130;16.844;2023-06-26T19:37:54;99528.22;;;22.49;71.95
77149;BME280;66122;47.130;16.844;2023-06-26T19:48:07;99510.34;;;22.48;74.01
77149;BME280;66122;47.130;16.844;2023-06-26T19:58:10;99516.72;;;21.71;77.65
77149;BME280;66122;47.130;16.844;2023-06-26T20:08:12;99505.81;;;21.55;78.03
77149;BME280;66122;47.130;16.844;2023-06-26T20:18:15;99518.94;;;21.50;77.62
77149;BME280;66122;47.130;16.844;2023-06-26T20:28:18;99523.06;;;21.36;78.57
77149;BME280;66122;47.130;16.844;2023-06-26T20:38:20;99508.84;;;21.09;78.53
77149;BME280;66122;47.130;16.844;2023-06-26T20:48:23;99503.91;;;21.22;77.25
77149;BME280;66122;47.130;16.844;2023-06-26T20:58:26;99490.84;;;20.74;81.79
77149;BME280;66122;47.130;16.844;2023-06-26T21:08:29;99483.72;;;20.55;82.81
77149;BME280;66122;47.130;16.844;2023-06-26T21:18:32;99490.97;;;20.27;83.20
77149;BME280;66122;47.130;16.844;2023-06-26T21:28:34;99492.81;;;19.99;83.59
77149;BME280;66122;47.130;16.844;2023-06-26T21:38:36;99487.03;;;20.21;81.80
77149;BME280;66122;47.130;16.844;2023-06-26T21:48:39;99477.84;;;20.24;81.30
77149;BME280;66122;47.130;16.844;2023-06-26T21:58:42;99483.88;;;20.36;79.85
77149;BME280;66122;47.130;16.844;2023-06-26T22:08:45;99486.94;;;20.13;80.41
77149;BME280;66122;47.130;16.844;2023-06-26T22:18:47;99468.88;;;19.78;84.37
77149;BME280;66122;47.130;16.844;2023-06-26T22:28:50;99465.97;;;19.53;85.25
77149;BME280;66122;47.130;16.844;2023-06-26T22:38:52;99457.66;;;19.36;86.12
77149;BME280;66122;47.130;16.844;2023-06-26T22:48:55;99450.28;;;19.38;85.34
77149;BME280;66122;47.130;16.844;2023-06-26T22:58:57;99449.53;;;18.99;87.49
77149;BME280;66122;47.130;16.844;2023-06-26T23:09:00;99445.81;;;19.10;87.11
77149;BME280;66122;47.130;16.844;2023-06-26T23:19:02;99442.13;;;19.30;85.03
77149;BME280;66122;47.130;16.844;2023-06-26T23:29:05;99440.44;;;19.29;86.02
77149;BME280;66122;47.130;16.844;2023-06-26T23:39:07;99431.94;;;19.24;87.97
77149;BME280;66122;47.130;16.844;2023-06-26T23:49:12;99432.59;;;18.80;91.79
77149;BME280;66122;47.130;16.844;2023-06-26T23:59:15;99437.13;;;18.69;91.82
